sensor_id;sensor_type;location;lat;lon;timestamp;P1;durP1;ratioP1;P2;durP2;ratioP2
8230;SDS011;4156;50.908;6.974;2023-03-05T00:01:51;6.67;;;2.37;;
8230;SDS011;4156;50.908;6.974;2023-03-05T00:04:17;3.43;;;2.40;;
8230;SDS011;4156;50.908;6.974;2023-03-05T00:06:42;4.10;;;2.40;;
8230;SDS011;4156;50.908;6.974;2023-03-05T00:09:08;8.00;;;3.03;;
8230;SDS011;4156;50.908;6.974;2023-03-05T00:11:34;6.20;;;2.30;;
8230;SDS011;4156;50.908;6.974;2023-03-05T00:14:00;4.50;;;2.73;;
8230;SDS011;4156;50.908;6.974;2023-03-05T00:16:28;10.10;;;2.40;;
8230;SDS011;4156;50.908;6.974;2023-03-05T00:18:54;7.57;;;2.47;;
8230;SDS011;4156;50.908;6.974;2023-03-05T00:21:22;6.93;;;2.20;;
8230;SDS011;4156;50.908;6.974;2023-03-05T00:23:50;5.57;;;2.30;;
8230;SDS011;4156;50.908;6.974;2023-03-05T00:26:17;7.07;;;2.63;;
8230;SDS011;4156;50.908;6.974;2023-03-05T00:28:43;3.70;;;2.00;;
8230;SDS011;4156;50.908;6.974;2023-03-05T00:31:13;9.27;;;2.70;;
8230;SDS011;4156;50.908;6.974;2023-03-05T00:33:40;6.03;;;2.40;;
8230;SDS011;4156;50.908;6.974;2023-03-05T00:36:05;8.07;;;2.43;;
8230;SDS011;4156;50.908;6.974;2023-03-05T00:38:31;3.00;;;2.07;;
8230;SDS011;4156;50.908;6.974;2023-03-05T00:40:57;6.67;;;2.37;;
8230;SDS011;4156;50.908;6.974;2023-03-05T00:43:23;8.07;;;3.53;;
8230;SDS011;4156;50.908;6.974;2023-03-05T00:45:48;6.23;;;2.20;;
8230;SDS011;4156;50.908;6.974;2023-03-05T00:48:14;3.50;;;2.00;;
8230;SDS011;4156;50.908;6.974;2023-03-05T00:50:39;4.47;;;2.60;;
8230;SDS011;4156;50.908;6.974;2023-03-05T00:53:05;6.77;;;2.30;;
8230;SDS011;4156;50.908;6.974;2023-03-05T00:55:30;8.90;;;2.83;;
8230;SDS011;4156;50.908;6.974;2023-03-05T00:57:56;9.63;;;2.40;;
8230;SDS011;4156;50.908;6.974;2023-03-05T01:00:21;6.10;;;2.43;;
8230;SDS011;4156;50.908;6.974;2023-03-05T01:02:47;8.70;;;2.27;;
8230;SDS011;4156;50.908;6.974;2023-03-05T01:05:12;8.80;;;2.70;;
8230;SDS011;4156;50.908;6.974;2023-03-05T01:07:39;7.77;;;2.27;;
8230;SDS011;4156;50.908;6.974;2023-03-05T01:10:05;5.03;;;2.27;;
8230;SDS011;4156;50.908;6.974;2023-03-05T01:12:31;8.23;;;2.33;;
8230;SDS011;4156;50.908;6.974;2023-03-05T01:14:57;8.47;;;3.33;;
8230;SDS011;4156;50.908;6.974;2023-03-05T01:17:22;6.87;;;2.47;;
8230;SDS011;4156;50.908;6.974;2023-03-05T01:19:48;7.77;;;2.50;;
8230;SDS011;4156;50.908;6.974;2023-03-05T01:22:13;8.10;;;3.63;;
8230;SDS011;4156;50.908;6.974;2023-03-05T01:24:39;7.47;;;2.13;;
8230;SDS011;4156;50.908;6.974;2023-03-05T01:27:04;7.07;;;3.17;;
8230;SDS011;4156;50.908;6.974;2023-03-05T01:29:30;5.43;;;2.10;;
8230;SDS011;4156;50.908;6.974;2023-03-05T01:31:55;6.13;;;2.30;;
8230;SDS011;4156;50.908;6.974;2023-03-05T01:34:21;10.47;;;2.70;;
8230;SDS011;4156;50.908;6.974;2023-03-05T01:36:46;5.17;;;2.10;;
8230;SDS011;4156;50.908;6.974;2023-03-05T01:39:14;6.73;;;2.10;;
8230;SDS011;4156;50.908;6.974;2023-03-05T01:41:40;6.27;;;2.00;;
8230;SDS011;4156;50.908;6.974;2023-03-05T01:44:06;4.23;;;2.00;;
8230;SDS011;4156;50.908;6.974;2023-03-05T01:46:35;5.57;;;2.13;;
8230;SDS011;4156;50.908;6.974;2023-03-05T01:54:52;3.27;;;2.30;;
8230;SDS011;4156;50.908;6.974;2023-03-05T01:57:22;5.73;;;2.10;;
8230;SDS011;4156;50.908;6.974;2023-03-05T01:59:54;4.80;;;2.03;;
8230;SDS011;4156;50.908;6.974;2023-03-05T02:02:23;6.03;;;1.90;;
8230;SDS011;4156;50.908;6.974;2023-03-05T02:04:50;7.00;;;2.20;;
8230;SDS011;4156;50.908;6.974;2023-03-05T02:07:20;5.10;;;1.83;;
8230;SDS011;4156;50.908;6.974;2023-03-05T02:09:46;5.07;;;2.03;;
8230;SDS011;4156;50.908;6.974;2023-03-05T02:12:12;3.87;;;1.90;;
8230;SDS011;4156;50.908;6.974;2023-03-05T02:14:39;6.77;;;2.00;;
8230;SDS011;4156;50.908;6.974;2023-03-05T02:17:07;3.47;;;1.80;;
8230;SDS011;4156;50.908;6.974;2023-03-05T02:19:52;6.00;;;3.93;;
8230;SDS011;4156;50.908;6.974;2023-03-05T02:22:20;5.70;;;1.70;;
8230;SDS011;4156;50.908;6.974;2023-03-05T02:24:48;3.17;;;1.83;;
8230;SDS011;4156;50.908;6.974;2023-03-05T02:27:14;2.73;;;1.70;;
8230;SDS011;4156;50.908;6.974;2023-03-05T02:29:42;4.40;;;2.03;;
8230;SDS011;4156;50.908;6.974;2023-03-05T02:32:10;4.63;;;2.30;;
8230;SDS011;4156;50.908;6.974;2023-03-05T02:34:36;8.20;;;2.10;;
8230;SDS011;4156;50.908;6.974;2023-03-05T02:37:03;10.77;;;2.70;;
8230;SDS011;4156;50.908;6.974;2023-03-05T02:39:32;7.40;;;2.30;;
8230;SDS011;4156;50.908;6.974;2023-03-05T02:41:58;6.43;;;2.30;;
8230;SDS011;4156;50.908;6.974;2023-03-05T02:44:24;4.47;;;1.57;;
8230;SDS011;4156;50.908;6.974;2023-03-05T02:46:49;6.63;;;2.07;;
8230;SDS011;4156;50.908;6.974;2023-03-05T02:49:15;7.07;;;2.30;;
8230;SDS011;4156;50.908;6.974;2023-03-05T02:51:40;5.37;;;2.00;;
8230;SDS011;4156;50.908;6.974;2023-03-05T02:54:06;5.40;;;2.07;;
8230;SDS011;4156;50.908;6.974;2023-03-05T02:56:31;3.03;;;1.70;;
8230;SDS011;4156;50.908;6.974;2023-03-05T02:58:57;4.43;;;1.80;;
8230;SDS011;4156;50.908;6.974;2023-03-05T03:01:22;3.53;;;1.77;;
8230;SDS011;4156;50.908;6.974;2023-03-05T03:03:48;3.63;;;1.50;;
8230;SDS011;4156;50.908;6.974;2023-03-05T03:06:13;4.60;;;1.70;;
8230;SDS011;4156;50.908;6.974;2023-03-05T03:08:39;4.87;;;2.17;;
8230;SDS011;4156;50.908;6.974;2023-03-05T03:11:08;4.83;;;2.00;;
8230;SDS011;4156;50.908;6.974;2023-03-05T03:13:36;5.50;;;1.90;;
8230;SDS011;4156;50.908;6.974;2023-03-05T03:16:07;7.93;;;2.10;;
8230;SDS011;4156;50.908;6.974;2023-03-05T03:18:34;8.30;;;2.20;;
8230;SDS011;4156;50.908;6.974;2023-03-05T03:21:00;8.10;;;2.47;;
8230;SDS011;4156;50.908;6.974;2023-03-05T03:23:25;9.00;;;2.33;;
8230;SDS011;4156;50.908;6.974;2023-03-05T03:25:51;4.53;;;2.37;;
8230;SDS011;4156;50.908;6.974;2023-03-05T03:28:17;8.30;;;2.07;;
8230;SDS011;4156;50.908;6.974;2023-03-05T03:30:42;5.37;;;1.93;;
8230;SDS011;4156;50.908;6.974;2023-03-05T03:33:08;4.00;;;2.67;;
8230;SDS011;4156;50.908;6.974;2023-03-05T03:35:34;6.57;;;2.10;;
8230;SDS011;4156;50.908;6.974;2023-03-05T03:38:00;3.37;;;1.60;;
8230;SDS011;4156;50.908;6.974;2023-03-05T03:40:25;4.87;;;2.00;;
8230;SDS011;4156;50.908;6.974;2023-03-05T03:42:51;5.07;;;2.10;;
8230;SDS011;4156;50.908;6.974;2023-03-05T03:45:17;5.60;;;2.00;;
8230;SDS011;4156;50.908;6.974;2023-03-05T03:47:43;7.03;;;2.30;;
8230;SDS011;4156;50.908;6.974;2023-03-05T03:50:09;5.80;;;2.20;;
8230;SDS011;4156;50.908;6.974;2023-03-05T03:52:35;6.73;;;2.70;;
8230;SDS011;4156;50.908;6.974;2023-03-05T03:55:00;4.10;;;1.60;;
8230;SDS011;4156;50.908;6.974;2023-03-05T03:57:27;3.47;;;2.00;;
8230;SDS011;4156;50.908;6.974;2023-03-05T03:59:57;4.60;;;2.00;;
8230;SDS011;4156;50.908;6.974;2023-03-05T04:02:23;6.30;;;2.70;;
8230;SDS011;4156;50.908;6.974;2023-03-05T04:04:49;5.03;;;2.00;;
8230;SDS011;4156;50.908;6.974;2023-03-05T04:07:14;4.67;;;1.90;;
8230;SDS011;4156;50.908;6.974;2023-03-05T04:09:40;5.27;;;1.90;;
8230;SDS011;4156;50.908;6.974;2023-03-05T04:12:05;7.13;;;2.17;;
8230;SDS011;4156;50.908;6.974;2023-03-05T04:14:31;7.33;;;2.17;;
8230;SDS011;4156;50.908;6.974;2023-03-05T04:16:57;6.53;;;1.90;;
8230;SDS011;4156;50.908;6.974;2023-03-05T04:19:22;6.50;;;2.23;;
8230;SDS011;4156;50.908;6.974;2023-03-05T04:21:48;5.80;;;2.50;;
8230;SDS011;4156;50.908;6.974;2023-03-05T04:24:13;3.40;;;1.87;;
8230;SDS011;4156;50.908;6.974;2023-03-05T04:26:39;4.80;;;2.10;;
8230;SDS011;4156;50.908;6.974;2023-03-05T04:29:04;6.20;;;2.00;;
8230;SDS011;4156;50.908;6.974;2023-03-05T04:31:30;4.63;;;2.00;;
8230;SDS011;4156;50.908;6.974;2023-03-05T04:33:55;3.57;;;2.17;;
8230;SDS011;4156;50.908;6.974;2023-03-05T04:36:21;7.97;;;2.17;;
8230;SDS011;4156;50.908;6.974;2023-03-05T04:38:46;4.47;;;2.30;;
8230;SDS011;4156;50.908;6.974;2023-03-05T04:41:12;5.37;;;2.00;;
8230;SDS011;4156;50.908;6.974;2023-03-05T04:43:37;5.97;;;2.50;;
8230;SDS011;4156;50.908;6.974;2023-03-05T04:46:03;7.43;;;2.70;;
8230;SDS011;4156;50.908;6.974;2023-03-05T04:48:28;5.83;;;2.50;;
8230;SDS011;4156;50.908;6.974;2023-03-05T04:50:54;5.23;;;1.80;;
8230;SDS011;4156;50.908;6.974;2023-03-05T04:53:21;9.97;;;3.70;;
8230;SDS011;4156;50.908;6.974;2023-03-05T04:55:51;8.63;;;2.47;;
8230;SDS011;4156;50.908;6.974;2023-03-05T04:58:17;7.00;;;2.30;;
8230;SDS011;4156;50.908;6.974;2023-03-05T05:00:43;6.00;;;2.10;;
8230;SDS011;4156;50.908;6.974;2023-03-05T05:03:08;7.20;;;2.00;;
8230;SDS011;4156;50.908;6.974;2023-03-05T05:05:33;6.67;;;2.30;;
8230;SDS011;4156;50.908;6.974;2023-03-05T05:07:59;4.00;;;2.10;;
8230;SDS011;4156;50.908;6.974;2023-03-05T05:10:25;4.60;;;2.10;;
8230;SDS011;4156;50.908;6.974;2023-03-05T05:12:50;6.33;;;2.00;;
8230;SDS011;4156;50.908;6.974;2023-03-05T05:15:17;3.70;;;2.10;;
8230;SDS011;4156;50.908;6.974;2023-03-05T05:17:42;4.80;;;2.17;;
8230;SDS011;4156;50.908;6.974;2023-03-05T05:20:09;3.67;;;1.90;;
8230;SDS011;4156;50.908;6.974;2023-03-05T05:22:36;4.67;;;2.07;;
8230;SDS011;4156;50.908;6.974;2023-03-05T05:25:01;3.97;;;2.03;;
8230;SDS011;4156;50.908;6.974;2023-03-05T05:27:27;4.53;;;2.13;;
8230;SDS011;4156;50.908;6.974;2023-03-05T05:29:52;7.37;;;2.87;;
8230;SDS011;4156;50.908;6.974;2023-03-05T05:32:19;6.40;;;2.10;;
8230;SDS011;4156;50.908;6.974;2023-03-05T05:34:46;4.77;;;1.87;;
8230;SDS011;4156;50.908;6.974;2023-03-05T05:37:12;4.27;;;1.90;;
8230;SDS011;4156;50.908;6.974;2023-03-05T05:39:37;7.20;;;3.03;;
8230;SDS011;4156;50.908;6.974;2023-03-05T05:42:03;5.63;;;2.37;;
8230;SDS011;4156;50.908;6.974;2023-03-05T05:44:29;7.33;;;2.77;;
8230;SDS011;4156;50.908;6.974;2023-03-05T05:46:55;6.67;;;2.17;;
8230;SDS011;4156;50.908;6.974;2023-03-05T05:49:20;9.87;;;2.80;;
8230;SDS011;4156;50.908;6.974;2023-03-05T05:51:46;5.23;;;2.20;;
8230;SDS011;4156;50.908;6.974;2023-03-05T05:54:12;6.57;;;2.27;;
8230;SDS011;4156;50.908;6.974;2023-03-05T05:56:38;8.63;;;2.30;;
8230;SDS011;4156;50.908;6.974;2023-03-05T05:59:04;5.97;;;2.17;;
8230;SDS011;4156;50.908;6.974;2023-03-05T06:01:30;5.47;;;2.20;;
8230;SDS011;4156;50.908;6.974;2023-03-05T06:03:57;5.10;;;2.33;;
8230;SDS011;4156;50.908;6.974;2023-03-05T06:06:24;8.80;;;2.97;;
8230;SDS011;4156;50.908;6.974;2023-03-05T06:08:51;9.13;;;2.40;;
8230;SDS011;4156;50.908;6.974;2023-03-05T06:11:17;3.03;;;2.00;;
8230;SDS011;4156;50.908;6.974;2023-03-05T06:13:44;6.37;;;2.30;;
8230;SDS011;4156;50.908;6.974;2023-03-05T06:16:10;6.57;;;2.60;;
8230;SDS011;4156;50.908;6.974;2023-03-05T06:18:38;3.97;;;1.87;;
8230;SDS011;4156;50.908;6.974;2023-03-05T06:21:05;7.00;;;2.20;;
8230;SDS011;4156;50.908;6.974;2023-03-05T06:23:32;4.20;;;2.23;;
8230;SDS011;4156;50.908;6.974;2023-03-05T06:25:59;10.47;;;2.73;;
8230;SDS011;4156;50.908;6.974;2023-03-05T06:28:25;4.20;;;2.03;;
8230;SDS011;4156;50.908;6.974;2023-03-05T06:30:58;4.47;;;2.13;;
8230;SDS011;4156;50.908;6.974;2023-03-05T06:33:28;5.97;;;2.40;;
8230;SDS011;4156;50.908;6.974;2023-03-05T06:35:54;7.13;;;2.50;;
8230;SDS011;4156;50.908;6.974;2023-03-05T06:38:19;4.00;;;2.10;;
8230;SDS011;4156;50.908;6.974;2023-03-05T06:40:45;8.63;;;2.83;;
8230;SDS011;4156;50.908;6.974;2023-03-05T06:43:10;9.63;;;2.70;;
8230;SDS011;4156;50.908;6.974;2023-03-05T06:45:36;6.40;;;2.30;;
8230;SDS011;4156;50.908;6.974;2023-03-05T06:48:02;4.43;;;2.07;;
8230;SDS011;4156;50.908;6.974;2023-03-05T06:50:27;6.80;;;2.60;;
8230;SDS011;4156;50.908;6.974;2023-03-05T06:52:53;7.87;;;3.20;;
8230;SDS011;4156;50.908;6.974;2023-03-05T06:55:19;8.53;;;3.20;;
8230;SDS011;4156;50.908;6.974;2023-03-05T06:57:45;8.83;;;3.17;;
8230;SDS011;4156;50.908;6.974;2023-03-05T07:00:11;7.00;;;3.60;;
8230;SDS011;4156;50.908;6.974;2023-03-05T07:02:37;7.40;;;3.40;;
8230;SDS011;4156;50.908;6.974;2023-03-05T07:05:03;5.07;;;3.13;;
8230;SDS011;4156;50.908;6.974;2023-03-05T07:07:29;6.60;;;2.57;;
8230;SDS011;4156;50.908;6.974;2023-03-05T07:09:56;5.50;;;2.70;;
8230;SDS011;4156;50.908;6.974;2023-03-05T07:12:22;6.73;;;2.97;;
8230;SDS011;4156;50.908;6.974;2023-03-05T07:14:47;6.20;;;2.70;;
8230;SDS011;4156;50.908;6.974;2023-03-05T07:17:13;5.57;;;2.90;;
8230;SDS011;4156;50.908;6.974;2023-03-05T07:19:39;13.20;;;2.97;;
8230;SDS011;4156;50.908;6.974;2023-03-05T07:22:05;12.17;;;3.03;;
8230;SDS011;4156;50.908;6.974;2023-03-05T07:24:31;4.43;;;2.23;;
8230;SDS011;4156;50.908;6.974;2023-03-05T07:26:57;7.70;;;2.90;;
8230;SDS011;4156;50.908;6.974;2023-03-05T07:29:24;6.30;;;3.07;;
8230;SDS011;4156;50.908;6.974;2023-03-05T07:31:50;8.03;;;3.00;;
8230;SDS011;4156;50.908;6.974;2023-03-05T07:34:16;5.93;;;2.50;;
8230;SDS011;4156;50.908;6.974;2023-03-05T07:36:42;7.10;;;2.83;;
8230;SDS011;4156;50.908;6.974;2023-03-05T07:39:09;9.23;;;3.00;;
8230;SDS011;4156;50.908;6.974;2023-03-05T07:41:36;6.77;;;2.73;;
8230;SDS011;4156;50.908;6.974;2023-03-05T07:44:02;7.50;;;3.20;;
8230;SDS011;4156;50.908;6.974;2023-03-05T07:46:28;4.33;;;2.30;;
8230;SDS011;4156;50.908;6.974;2023-03-05T07:48:56;7.10;;;2.67;;
8230;SDS011;4156;50.908;6.974;2023-03-05T07:51:23;7.20;;;2.57;;
8230;SDS011;4156;50.908;6.974;2023-03-05T07:53:50;8.07;;;2.70;;
8230;SDS011;4156;50.908;6.974;2023-03-05T07:56:23;9.80;;;3.13;;
8230;SDS011;4156;50.908;6.974;2023-03-05T07:58:50;7.90;;;2.90;;
8230;SDS011;4156;50.908;6.974;2023-03-05T08:01:16;8.90;;;3.10;;
8230;SDS011;4156;50.908;6.974;2023-03-05T08:03:42;6.70;;;2.83;;
8230;SDS011;4156;50.908;6.974;2023-03-05T08:06:08;5.43;;;2.23;;
8230;SDS011;4156;50.908;6.974;2023-03-05T08:08:35;11.30;;;2.70;;
8230;SDS011;4156;50.908;6.974;2023-03-05T08:11:04;5.47;;;2.77;;
8230;SDS011;4156;50.908;6.974;2023-03-05T08:13:31;10.67;;;2.73;;
8230;SDS011;4156;50.908;6.974;2023-03-05T08:15:56;5.57;;;3.07;;
8230;SDS011;4156;50.908;6.974;2023-03-05T08:18:22;6.43;;;2.63;;
8230;SDS011;4156;50.908;6.974;2023-03-05T08:20:48;8.47;;;3.17;;
8230;SDS011;4156;50.908;6.974;2023-03-05T08:23:13;5.77;;;2.83;;
8230;SDS011;4156;50.908;6.974;2023-03-05T08:25:39;6.67;;;4.10;;
8230;SDS011;4156;50.908;6.974;2023-03-05T08:28:04;5.00;;;2.73;;
8230;SDS011;4156;50.908;6.974;2023-03-05T08:30:30;5.47;;;2.57;;
8230;SDS011;4156;50.908;6.974;2023-03-05T08:32:55;8.00;;;2.77;;
8230;SDS011;4156;50.908;6.974;2023-03-05T08:35:21;8.03;;;3.10;;
8230;SDS011;4156;50.908;6.974;2023-03-05T08:37:47;3.63;;;2.30;;
8230;SDS011;4156;50.908;6.974;2023-03-05T08:40:13;5.63;;;2.63;;
8230;SDS011;4156;50.908;6.974;2023-03-05T08:42:39;6.47;;;2.50;;
8230;SDS011;4156;50.908;6.974;2023-03-05T08:45:05;7.93;;;2.80;;
8230;SDS011;4156;50.908;6.974;2023-03-05T08:47:31;5.50;;;2.47;;
8230;SDS011;4156;50.908;6.974;2023-03-05T08:49:56;6.60;;;2.70;;
8230;SDS011;4156;50.908;6.974;2023-03-05T08:52:22;6.77;;;3.13;;
8230;SDS011;4156;50.908;6.974;2023-03-05T08:54:48;7.53;;;3.00;;
8230;SDS011;4156;50.908;6.974;2023-03-05T08:57:14;7.70;;;3.70;;
8230;SDS011;4156;50.908;6.974;2023-03-05T08:59:40;9.90;;;2.83;;
8230;SDS011;4156;50.908;6.974;2023-03-05T09:02:05;7.43;;;2.80;;
8230;SDS011;4156;50.908;6.974;2023-03-05T09:04:31;5.90;;;3.10;;
8230;SDS011;4156;50.908;6.974;2023-03-05T09:06:56;9.20;;;3.20;;
8230;SDS011;4156;50.908;6.974;2023-03-05T09:09:22;6.67;;;3.03;;
8230;SDS011;4156;50.908;6.974;2023-03-05T09:11:48;5.13;;;3.63;;
8230;SDS011;4156;50.908;6.974;2023-03-05T09:14:16;6.47;;;3.40;;
8230;SDS011;4156;50.908;6.974;2023-03-05T09:16:41;5.03;;;2.90;;
8230;SDS011;4156;50.908;6.974;2023-03-05T09:19:07;6.33;;;3.53;;
8230;SDS011;4156;50.908;6.974;2023-03-05T09:21:34;7.37;;;3.63;;
8230;SDS011;4156;50.908;6.974;2023-03-05T09:24:00;10.13;;;4.30;;
8230;SDS011;4156;50.908;6.974;2023-03-05T09:26:26;8.40;;;3.67;;
8230;SDS011;4156;50.908;6.974;2023-03-05T09:28:52;5.57;;;3.50;;
8230;SDS011;4156;50.908;6.974;2023-03-05T09:31:17;6.47;;;3.17;;
8230;SDS011;4156;50.908;6.974;2023-03-05T09:33:43;8.60;;;3.53;;
8230;SDS011;4156;50.908;6.974;2023-03-05T09:36:16;7.53;;;3.20;;
8230;SDS011;4156;50.908;6.974;2023-03-05T09:38:43;6.97;;;3.00;;
8230;SDS011;4156;50.908;6.974;2023-03-05T09:44:16;8.60;;;3.47;;
8230;SDS011;4156;50.908;6.974;2023-03-05T09:52:21;5.47;;;2.83;;
8230;SDS011;4156;50.908;6.974;2023-03-05T09:54:55;8.43;;;3.10;;
8230;SDS011;4156;50.908;6.974;2023-03-05T09:57:35;8.97;;;3.67;;
8230;SDS011;4156;50.908;6.974;2023-03-05T10:00:07;8.40;;;3.80;;
8230;SDS011;4156;50.908;6.974;2023-03-05T10:02:47;5.10;;;2.93;;
8230;SDS011;4156;50.908;6.974;2023-03-05T10:05:25;12.00;;;3.23;;
8230;SDS011;4156;50.908;6.974;2023-03-05T10:07:59;8.90;;;3.93;;
8230;SDS011;4156;50.908;6.974;2023-03-05T10:10:49;12.43;;;2.90;;
8230;SDS011;4156;50.908;6.974;2023-03-05T10:13:23;6.33;;;3.37;;
8230;SDS011;4156;50.908;6.974;2023-03-05T10:18:50;5.43;;;3.00;;
8230;SDS011;4156;50.908;6.974;2023-03-05T10:21:52;7.90;;;3.10;;
8230;SDS011;4156;50.908;6.974;2023-03-05T10:24:38;5.27;;;3.13;;
8230;SDS011;4156;50.908;6.974;2023-03-05T10:27:32;6.27;;;3.23;;
8230;SDS011;4156;50.908;6.974;2023-03-05T10:30:18;5.30;;;2.80;;
8230;SDS011;4156;50.908;6.974;2023-03-05T10:33:23;3.57;;;2.43;;
8230;SDS011;4156;50.908;6.974;2023-03-05T10:36:13;3.87;;;3.20;;
8230;SDS011;4156;50.908;6.974;2023-03-05T10:39:11;5.93;;;3.37;;
8230;SDS011;4156;50.908;6.974;2023-03-05T10:42:01;7.77;;;3.87;;
8230;SDS011;4156;50.908;6.974;2023-03-05T10:44:35;5.43;;;3.57;;
8230;SDS011;4156;50.908;6.974;2023-03-05T10:47:26;6.10;;;3.73;;
8230;SDS011;4156;50.908;6.974;2023-03-05T10:49:56;6.57;;;3.73;;
8230;SDS011;4156;50.908;6.974;2023-03-05T10:52:34;6.80;;;4.80;;
8230;SDS011;4156;50.908;6.974;2023-03-05T10:55:15;9.53;;;4.53;;
8230;SDS011;4156;50.908;6.974;2023-03-05T10:57:45;8.63;;;4.20;;
8230;SDS011;4156;50.908;6.974;2023-03-05T11:00:21;7.27;;;4.40;;
8230;SDS011;4156;50.908;6.974;2023-03-05T11:06:01;8.80;;;5.10;;
8230;SDS011;4156;50.908;6.974;2023-03-05T11:08:22;6.57;;;4.97;;
8230;SDS011;4156;50.908;6.974;2023-03-05T11:11:07;7.30;;;5.10;;
8230;SDS011;4156;50.908;6.974;2023-03-05T11:16:30;10.17;;;5.30;;
8230;SDS011;4156;50.908;6.974;2023-03-05T11:19:17;11.40;;;5.63;;
8230;SDS011;4156;50.908;6.974;2023-03-05T11:24:36;5.93;;;4.73;;
8230;SDS011;4156;50.908;6.974;2023-03-05T11:27:19;9.07;;;4.53;;
8230;SDS011;4156;50.908;6.974;2023-03-05T11:29:58;6.70;;;4.60;;
8230;SDS011;4156;50.908;6.974;2023-03-05T11:32:25;8.10;;;5.03;;
8230;SDS011;4156;50.908;6.974;2023-03-05T11:34:53;7.80;;;4.10;;
8230;SDS011;4156;50.908;6.974;2023-03-05T11:39:48;5.77;;;4.77;;
8230;SDS011;4156;50.908;6.974;2023-03-05T11:42:29;6.13;;;4.50;;
8230;SDS011;4156;50.908;6.974;2023-03-05T11:44:54;5.40;;;4.63;;
8230;SDS011;4156;50.908;6.974;2023-03-05T11:47:28;5.37;;;4.53;;
8230;SDS011;4156;50.908;6.974;2023-03-05T11:50:01;5.60;;;4.47;;
8230;SDS011;4156;50.908;6.974;2023-03-05T11:52:41;6.10;;;4.70;;
8230;SDS011;4156;50.908;6.974;2023-03-05T11:55:14;5.67;;;4.17;;
8230;SDS011;4156;50.908;6.974;2023-03-05T11:57:43;7.20;;;5.07;;
8230;SDS011;4156;50.908;6.974;2023-03-05T12:00:16;6.53;;;4.60;;
8230;SDS011;4156;50.908;6.974;2023-03-05T12:02:49;6.23;;;5.07;;
8230;SDS011;4156;50.908;6.974;2023-03-05T12:05:18;6.77;;;4.97;;
8230;SDS011;4156;50.908;6.974;2023-03-05T12:07:46;5.60;;;5.00;;
8230;SDS011;4156;50.908;6.974;2023-03-05T12:10:19;6.30;;;4.83;;
8230;SDS011;4156;50.908;6.974;2023-03-05T12:12:48;8.00;;;4.93;;
8230;SDS011;4156;50.908;6.974;2023-03-05T12:21:13;8.23;;;5.53;;
8230;SDS011;4156;50.908;6.974;2023-03-05T12:23:46;7.23;;;6.07;;
8230;SDS011;4156;50.908;6.974;2023-03-05T12:26:14;6.27;;;5.40;;
8230;SDS011;4156;50.908;6.974;2023-03-05T12:38:41;9.00;;;5.80;;
8230;SDS011;4156;50.908;6.974;2023-03-05T12:46:30;7.10;;;5.30;;
8230;SDS011;4156;50.908;6.974;2023-03-05T12:51:51;7.23;;;4.70;;
8230;SDS011;4156;50.908;6.974;2023-03-05T12:54:32;6.37;;;4.27;;
8230;SDS011;4156;50.908;6.974;2023-03-05T12:57:04;7.13;;;5.17;;
8230;SDS011;4156;50.908;6.974;2023-03-05T12:59:41;5.50;;;4.20;;
8230;SDS011;4156;50.908;6.974;2023-03-05T13:04:50;7.23;;;4.97;;
8230;SDS011;4156;50.908;6.974;2023-03-05T13:07:20;6.97;;;4.90;;
8230;SDS011;4156;50.908;6.974;2023-03-05T13:09:56;6.70;;;4.63;;
8230;SDS011;4156;50.908;6.974;2023-03-05T13:12:23;6.20;;;4.47;;
8230;SDS011;4156;50.908;6.974;2023-03-05T13:14:58;6.87;;;4.77;;
8230;SDS011;4156;50.908;6.974;2023-03-05T13:17:31;6.13;;;4.57;;
8230;SDS011;4156;50.908;6.974;2023-03-05T13:20:00;10.80;;;5.10;;
8230;SDS011;4156;50.908;6.974;2023-03-05T13:22:30;5.63;;;4.73;;
8230;SDS011;4156;50.908;6.974;2023-03-05T13:25:03;6.73;;;4.77;;
8230;SDS011;4156;50.908;6.974;2023-03-05T13:27:36;5.60;;;4.77;;
8230;SDS011;4156;50.908;6.974;2023-03-05T13:30:02;7.77;;;5.27;;
8230;SDS011;4156;50.908;6.974;2023-03-05T13:32:29;7.27;;;5.53;;
8230;SDS011;4156;50.908;6.974;2023-03-05T13:34:57;6.73;;;5.03;;
8230;SDS011;4156;50.908;6.974;2023-03-05T13:37:24;7.37;;;5.10;;
8230;SDS011;4156;50.908;6.974;2023-03-05T13:40:00;5.13;;;4.63;;
8230;SDS011;4156;50.908;6.974;2023-03-05T13:42:43;7.60;;;4.57;;
8230;SDS011;4156;50.908;6.974;2023-03-05T13:45:26;4.90;;;4.47;;
8230;SDS011;4156;50.908;6.974;2023-03-05T13:48:03;5.43;;;4.30;;
8230;SDS011;4156;50.908;6.974;2023-03-05T13:50:31;5.97;;;4.10;;
8230;SDS011;4156;50.908;6.974;2023-03-05T13:56:01;6.57;;;4.40;;
8230;SDS011;4156;50.908;6.974;2023-03-05T13:58:41;6.57;;;5.10;;
8230;SDS011;4156;50.908;6.974;2023-03-05T14:07:02;7.90;;;5.03;;
8230;SDS011;4156;50.908;6.974;2023-03-05T14:09:30;5.67;;;4.40;;
8230;SDS011;4156;50.908;6.974;2023-03-05T14:14:57;5.63;;;4.60;;
8230;SDS011;4156;50.908;6.974;2023-03-05T14:17:29;6.43;;;4.70;;
8230;SDS011;4156;50.908;6.974;2023-03-05T14:22:36;7.30;;;4.87;;
8230;SDS011;4156;50.908;6.974;2023-03-05T14:25:03;4.67;;;4.17;;
8230;SDS011;4156;50.908;6.974;2023-03-05T14:27:32;5.50;;;4.33;;
8230;SDS011;4156;50.908;6.974;2023-03-05T14:29:59;5.83;;;4.77;;
8230;SDS011;4156;50.908;6.974;2023-03-05T14:35:00;6.83;;;4.70;;
8230;SDS011;4156;50.908;6.974;2023-03-05T14:37:30;5.43;;;4.63;;
8230;SDS011;4156;50.908;6.974;2023-03-05T14:40:06;8.73;;;4.83;;
8230;SDS011;4156;50.908;6.974;2023-03-05T14:42:37;6.53;;;5.20;;
8230;SDS011;4156;50.908;6.974;2023-03-05T14:45:20;4.90;;;4.37;;
8230;SDS011;4156;50.908;6.974;2023-03-05T14:47:52;6.07;;;4.60;;
8230;SDS011;4156;50.908;6.974;2023-03-05T14:50:20;6.10;;;4.40;;
8230;SDS011;4156;50.908;6.974;2023-03-05T14:52:48;6.70;;;4.80;;
8230;SDS011;4156;50.908;6.974;2023-03-05T14:55:26;6.93;;;5.07;;
8230;SDS011;4156;50.908;6.974;2023-03-05T14:57:56;5.63;;;4.27;;
8230;SDS011;4156;50.908;6.974;2023-03-05T15:00:28;6.73;;;4.80;;
8230;SDS011;4156;50.908;6.974;2023-03-05T15:02:55;5.60;;;4.90;;
8230;SDS011;4156;50.908;6.974;2023-03-05T15:05:22;7.10;;;5.10;;
8230;SDS011;4156;50.908;6.974;2023-03-05T15:07:48;6.43;;;4.53;;
8230;SDS011;4156;50.908;6.974;2023-03-05T15:10:19;5.77;;;4.50;;
8230;SDS011;4156;50.908;6.974;2023-03-05T15:12:47;5.17;;;4.23;;
8230;SDS011;4156;50.908;6.974;2023-03-05T15:15:17;5.67;;;4.47;;
8230;SDS011;4156;50.908;6.974;2023-03-05T15:17:45;9.00;;;4.43;;
8230;SDS011;4156;50.908;6.974;2023-03-05T15:20:16;6.37;;;4.80;;
8230;SDS011;4156;50.908;6.974;2023-03-05T15:22:44;6.60;;;4.27;;
8230;SDS011;4156;50.908;6.974;2023-03-05T15:25:09;5.43;;;4.50;;
8230;SDS011;4156;50.908;6.974;2023-03-05T15:27:35;5.60;;;5.00;;
8230;SDS011;4156;50.908;6.974;2023-03-05T15:30:01;6.60;;;5.00;;
8230;SDS011;4156;50.908;6.974;2023-03-05T15:32:27;5.30;;;4.40;;
8230;SDS011;4156;50.908;6.974;2023-03-05T15:34:54;6.37;;;4.67;;
8230;SDS011;4156;50.908;6.974;2023-03-05T15:37:20;6.43;;;4.57;;
8230;SDS011;4156;50.908;6.974;2023-03-05T15:39:45;5.67;;;4.53;;
8230;SDS011;4156;50.908;6.974;2023-03-05T15:42:11;7.17;;;4.90;;
8230;SDS011;4156;50.908;6.974;2023-03-05T15:44:36;7.60;;;4.87;;
8230;SDS011;4156;50.908;6.974;2023-03-05T15:47:04;7.70;;;5.13;;
8230;SDS011;4156;50.908;6.974;2023-03-05T15:49:29;7.40;;;4.90;;
8230;SDS011;4156;50.908;6.974;2023-03-05T15:51:55;8.00;;;5.23;;
8230;SDS011;4156;50.908;6.974;2023-03-05T15:54:21;6.77;;;5.07;;
8230;SDS011;4156;50.908;6.974;2023-03-05T15:56:46;6.27;;;4.37;;
8230;SDS011;4156;50.908;6.974;2023-03-05T15:59:12;5.93;;;4.87;;
8230;SDS011;4156;50.908;6.974;2023-03-05T16:01:38;9.37;;;4.90;;
8230;SDS011;4156;50.908;6.974;2023-03-05T16:04:08;6.90;;;5.63;;
8230;SDS011;4156;50.908;6.974;2023-03-05T16:06:34;7.83;;;5.33;;
8230;SDS011;4156;50.908;6.974;2023-03-05T16:09:03;6.50;;;5.13;;
8230;SDS011;4156;50.908;6.974;2023-03-05T16:11:30;7.27;;;5.57;;
8230;SDS011;4156;50.908;6.974;2023-03-05T16:13:57;6.53;;;4.90;;
8230;SDS011;4156;50.908;6.974;2023-03-05T16:16:26;9.30;;;6.10;;
8230;SDS011;4156;50.908;6.974;2023-03-05T16:18:52;8.57;;;6.10;;
8230;SDS011;4156;50.908;6.974;2023-03-05T16:21:19;7.87;;;5.73;;
8230;SDS011;4156;50.908;6.974;2023-03-05T16:23:44;8.13;;;5.70;;
8230;SDS011;4156;50.908;6.974;2023-03-05T16:26:10;9.23;;;6.10;;
8230;SDS011;4156;50.908;6.974;2023-03-05T16:28:36;6.50;;;5.57;;
8230;SDS011;4156;50.908;6.974;2023-03-05T16:31:02;8.43;;;6.23;;
8230;SDS011;4156;50.908;6.974;2023-03-05T16:33:27;7.53;;;6.47;;
8230;SDS011;4156;50.908;6.974;2023-03-05T16:36:11;7.83;;;5.70;;